Fort Myers, FL

7:05 PM EDT on October 22, 2014 (GMT -0400)
Orangewood | Change Station
CLOSE
Current Station
Personal Weather Station
Location: Fort Myers, FL
Elevation: 20 ft
Nearby Weather Stations

Elev 20 ft 26.60 °N, 81.88 °W | Updated 13 seconds ago

Rain
Rain
76.6 °F
Feels Like 77 °F
N
0.0
Wind Variable Wind from North
Gusts 2.0 mph

Today
High -- | Low -- °F
--% Chance of Precip.
Yesterday
High -- | Low -- °F
Precip. -- in
7:30 AM 6:52 PM
Waning Crescent, 1% visible
Pressure 29.92 in
Visibility 10.0 miles
Clouds Few 3800 ft
Overcast 6500 ft
Heat Index 77 °F
Dew Point 74 °F
Humidity 93%
Rainfall 0.00 in
Snow Depth Not available.
UV 0 out of 12
Pollen 6.70 out of 12
Air Quality Not available.
Flu Activity Local Activity
METAR KFMY 222253Z 00000KT 10SM FEW038 OVC065 27/21 A2991 RMK AO2 SLP131 T02670211

More Conditions Fewer Conditions

Pressure 29.92 in
Visibility 10.0 miles
Clouds Few 3800 ft
Overcast 6500 ft
Heat Index 77 °F
Dew Point 74 °F
Humidity 93%
Rainfall 0.00 in
Snow Depth Not available.
UV 0 out of 12
Pollen 6.70 out of 12
Air Quality Not available.
Flu Activity Local Activity
METAR KFMY 222253Z 00000KT 10SM FEW038 OVC065 27/21 A2991 RMK AO2 SLP131 T02670211

More Conditions Fewer Conditions

10-Day Weather Forecast

Almanac

Astronomy

Oct. 22, 2014 Rise Set
Actual Time 7:30 AM EDT 6:52 PM EDT
Civil Twilight 7:07 AM EDT 7:16 PM EDT
Nautical Twilight 6:40 AM EDT 7:43 PM EDT
Astronomical Twilight 6:13 AM EDT 8:10 PM EDT
Moon 6:17 AM EDT 6:13 PM EDT
Length of Visible Light 12h 09m
Length of Day
11h 21m
Tomorrow will be 1m 27s shorter.
Waning Crescent, 1% of the Moon is Illuminated
Today
Waning Crescent
Oct 23
New
Oct 30
First Quarter
Nov 6
Full
Nov 14
Last Quarter

Today's Extremes

State Highs State Lows

Community

WunderPhotos

Upload Photos

1,764,071 photos uploaded!

WunderBlogs® & News

Nearby

Snow Depth

Station Depth Elevation
No new snow has been reported.

Earthquake Activity

City Distance Mag. Time & Date
No recent earthquake activity has been reported nearby.
Minimum magnitude displayed is 2.5.

Coastal Water Temperatures

Place Temperature
Fort Myers, FL 82.9 °F
Naples, FL 82.9 °F

Nearby Weather Stations